sensor_id;sensor_type;location;lat;lon;timestamp;pressure;altitude;pressure_sealevel;temperature;humidity
8653;BME280;4364;52.426;9.424;2022-08-03T00:01:48;101066.84;;;19.94;69.28
8653;BME280;4364;52.426;9.424;2022-08-03T00:04:15;101070.97;;;19.88;69.24
8653;BME280;4364;52.426;9.424;2022-08-03T00:06:41;101066.91;;;19.86;69.43
8653;BME280;4364;52.426;9.424;2022-08-03T00:09:08;101069.97;;;19.84;69.60
8653;BME280;4364;52.426;9.424;2022-08-03T00:11:35;101062.03;;;19.83;69.76
8653;BME280;4364;52.426;9.424;2022-08-03T00:14:03;101065.97;;;19.82;69.89
8653;BME280;4364;52.426;9.424;2022-08-03T00:16:36;101067.88;;;19.81;69.79
8653;BME280;4364;52.426;9.424;2022-08-03T00:19:03;101063.53;;;19.80;69.96
8653;BME280;4364;52.426;9.424;2022-08-03T00:21:30;101068.22;;;19.79;69.79
8653;BME280;4364;52.426;9.424;2022-08-03T00:23:57;101075.69;;;19.79;70.28
8653;BME280;4364;52.426;9.424;2022-08-03T00:26:23;101071.97;;;19.75;70.04
8653;BME280;4364;52.426;9.424;2022-08-03T00:28:50;101060.09;;;19.74;70.14
8653;BME280;4364;52.426;9.424;2022-08-03T00:31:16;101066.63;;;19.70;70.35
8653;BME280;4364;52.426;9.424;2022-08-03T00:34:04;101063.69;;;19.66;70.74
8653;BME280;4364;52.426;9.424;2022-08-03T00:36:32;101062.41;;;19.63;70.87
8653;BME280;4364;52.426;9.424;2022-08-03T00:38:59;101065.34;;;19.58;70.81
8653;BME280;4364;52.426;9.424;2022-08-03T00:41:26;101065.06;;;19.51;70.71
8653;BME280;4364;52.426;9.424;2022-08-03T00:43:53;101055.50;;;19.40;70.91
8653;BME280;4364;52.426;9.424;2022-08-03T00:46:19;101051.28;;;19.34;70.88
8653;BME280;4364;52.426;9.424;2022-08-03T00:48:48;101048.56;;;19.25;70.87
8653;BME280;4364;52.426;9.424;2022-08-03T00:51:15;101056.34;;;19.23;71.06
8653;BME280;4364;52.426;9.424;2022-08-03T00:53:42;101052.63;;;19.19;71.34
8653;BME280;4364;52.426;9.424;2022-08-03T00:56:12;101057.00;;;19.20;71.59
8653;BME280;4364;52.426;9.424;2022-08-03T00:58:39;101048.41;;;19.13;71.76
8653;BME280;4364;52.426;9.424;2022-08-03T01:01:05;101049.88;;;19.10;71.80
8653;BME280;4364;52.426;9.424;2022-08-03T01:03:32;101049.72;;;19.06;71.88
8653;BME280;4364;52.426;9.424;2022-08-03T01:06:31;101049.56;;;19.03;72.18
8653;BME280;4364;52.426;9.424;2022-08-03T01:09:16;101050.69;;;19.02;72.23
8653;BME280;4364;52.426;9.424;2022-08-03T01:12:29;101050.22;;;19.00;72.26
8653;BME280;4364;52.426;9.424;2022-08-03T01:14:57;101042.75;;;19.00;72.42
8653;BME280;4364;52.426;9.424;2022-08-03T01:17:33;101049.38;;;18.99;72.47
8653;BME280;4364;52.426;9.424;2022-08-03T01:20:11;101048.59;;;18.99;72.55
8653;BME280;4364;52.426;9.424;2022-08-03T01:26:15;101043.25;;;18.94;72.64
8653;BME280;4364;52.426;9.424;2022-08-03T01:28:57;101045.84;;;18.90;72.72
8653;BME280;4364;52.426;9.424;2022-08-03T01:31:36;101051.84;;;18.92;72.60
8653;BME280;4364;52.426;9.424;2022-08-03T01:34:31;101047.13;;;18.93;72.81
8653;BME280;4364;52.426;9.424;2022-08-03T01:37:02;101043.72;;;18.96;72.67
8653;BME280;4364;52.426;9.424;2022-08-03T01:39:31;101045.69;;;18.95;72.73
8653;BME280;4364;52.426;9.424;2022-08-03T01:42:02;101033.22;;;18.98;73.05
8653;BME280;4364;52.426;9.424;2022-08-03T01:44:37;101040.47;;;19.02;72.72
8653;BME280;4364;52.426;9.424;2022-08-03T01:47:06;101036.13;;;19.01;72.94
8653;BME280;4364;52.426;9.424;2022-08-03T01:49:39;101030.94;;;19.00;73.18
8653;BME280;4364;52.426;9.424;2022-08-03T01:52:09;101030.28;;;18.94;73.42
8653;BME280;4364;52.426;9.424;2022-08-03T01:54:41;101041.13;;;18.91;73.68
8653;BME280;4364;52.426;9.424;2022-08-03T01:57:12;101042.63;;;18.88;73.82
8653;BME280;4364;52.426;9.424;2022-08-03T01:59:40;101040.97;;;18.87;73.63
8653;BME280;4364;52.426;9.424;2022-08-03T02:02:11;101037.75;;;18.85;74.15
8653;BME280;4364;52.426;9.424;2022-08-03T02:04:59;101040.03;;;18.83;73.67
8653;BME280;4364;52.426;9.424;2022-08-03T02:07:28;101034.50;;;18.83;73.86
8653;BME280;4364;52.426;9.424;2022-08-03T02:09:57;101033.97;;;18.81;74.30
8653;BME280;4364;52.426;9.424;2022-08-03T02:12:27;101037.88;;;18.80;74.28
8653;BME280;4364;52.426;9.424;2022-08-03T02:14:56;101030.59;;;18.75;74.13
8653;BME280;4364;52.426;9.424;2022-08-03T02:17:27;101032.88;;;18.73;74.17
8653;BME280;4364;52.426;9.424;2022-08-03T02:20:06;101027.50;;;18.68;74.19
8653;BME280;4364;52.426;9.424;2022-08-03T02:22:34;101032.03;;;18.64;74.73
8653;BME280;4364;52.426;9.424;2022-08-03T02:25:01;101031.72;;;18.65;74.50
8653;BME280;4364;52.426;9.424;2022-08-03T02:27:28;101032.50;;;18.66;74.55
8653;BME280;4364;52.426;9.424;2022-08-03T02:30:01;101025.09;;;18.66;74.52
8653;BME280;4364;52.426;9.424;2022-08-03T02:32:37;101024.94;;;18.63;74.35
8653;BME280;4364;52.426;9.424;2022-08-03T02:35:10;101031.25;;;18.55;74.87
8653;BME280;4364;52.426;9.424;2022-08-03T02:37:45;101030.25;;;18.50;74.54
8653;BME280;4364;52.426;9.424;2022-08-03T02:40:17;101029.44;;;18.50;75.05
8653;BME280;4364;52.426;9.424;2022-08-03T02:42:45;101031.25;;;18.55;74.25
8653;BME280;4364;52.426;9.424;2022-08-03T02:45:13;101022.97;;;18.55;74.11
8653;BME280;4364;52.426;9.424;2022-08-03T02:47:42;101025.41;;;18.56;74.64
8653;BME280;4364;52.426;9.424;2022-08-03T02:50:21;101020.22;;;18.55;74.77
8653;BME280;4364;52.426;9.424;2022-08-03T02:52:50;101015.69;;;18.50;74.27
8653;BME280;4364;52.426;9.424;2022-08-03T02:55:19;101018.28;;;18.46;74.88
8653;BME280;4364;52.426;9.424;2022-08-03T02:57:46;101020.66;;;18.39;74.67
8653;BME280;4364;52.426;9.424;2022-08-03T03:00:14;101018.41;;;18.32;74.82
8653;BME280;4364;52.426;9.424;2022-08-03T03:02:56;101019.88;;;18.30;74.64
8653;BME280;4364;52.426;9.424;2022-08-03T03:05:23;101015.31;;;18.25;75.07
8653;BME280;4364;52.426;9.424;2022-08-03T03:08:14;101021.81;;;18.29;74.83
8653;BME280;4364;52.426;9.424;2022-08-03T03:10:44;101018.06;;;18.34;74.80
8653;BME280;4364;52.426;9.424;2022-08-03T03:13:14;101016.94;;;18.35;74.77
8653;BME280;4364;52.426;9.424;2022-08-03T03:15:42;101014.34;;;18.30;74.83
8653;BME280;4364;52.426;9.424;2022-08-03T03:18:10;101013.88;;;18.28;75.25
8653;BME280;4364;52.426;9.424;2022-08-03T03:20:38;101020.97;;;18.29;74.97
8653;BME280;4364;52.426;9.424;2022-08-03T03:23:07;101019.06;;;18.29;74.74
8653;BME280;4364;52.426;9.424;2022-08-03T03:25:34;101018.06;;;18.25;74.92
8653;BME280;4364;52.426;9.424;2022-08-03T03:28:02;101013.84;;;18.19;75.27
8653;BME280;4364;52.426;9.424;2022-08-03T03:30:32;101023.56;;;18.08;75.27
8653;BME280;4364;52.426;9.424;2022-08-03T03:32:59;101031.63;;;18.04;75.52
8653;BME280;4364;52.426;9.424;2022-08-03T03:35:28;101026.44;;;18.03;75.85
8653;BME280;4364;52.426;9.424;2022-08-03T03:38:05;101022.88;;;18.02;75.59
8653;BME280;4364;52.426;9.424;2022-08-03T03:40:35;101019.63;;;18.00;75.55
8653;BME280;4364;52.426;9.424;2022-08-03T03:43:07;101015.44;;;18.03;75.91
8653;BME280;4364;52.426;9.424;2022-08-03T03:45:34;101023.56;;;18.08;75.40
8653;BME280;4364;52.426;9.424;2022-08-03T03:48:03;101019.47;;;18.05;75.45
8653;BME280;4364;52.426;9.424;2022-08-03T03:50:32;101022.22;;;17.96;75.97
8653;BME280;4364;52.426;9.424;2022-08-03T03:53:01;101020.56;;;17.87;75.90
8653;BME280;4364;52.426;9.424;2022-08-03T03:55:28;101012.47;;;17.90;76.34
8653;BME280;4364;52.426;9.424;2022-08-03T03:57:56;101024.22;;;17.82;76.75
8653;BME280;4364;52.426;9.424;2022-08-03T04:00:22;101015.97;;;17.82;76.63
8653;BME280;4364;52.426;9.424;2022-08-03T04:02:49;101020.03;;;17.85;76.46
8653;BME280;4364;52.426;9.424;2022-08-03T04:05:16;101017.81;;;17.87;76.22
8653;BME280;4364;52.426;9.424;2022-08-03T04:10:55;101020.59;;;17.95;76.26
8653;BME280;4364;52.426;9.424;2022-08-03T04:13:32;101029.97;;;17.94;76.28
8653;BME280;4364;52.426;9.424;2022-08-03T04:16:00;101031.25;;;17.88;76.42
8653;BME280;4364;52.426;9.424;2022-08-03T04:18:30;101024.81;;;17.93;76.44
8653;BME280;4364;52.426;9.424;2022-08-03T04:21:01;101027.56;;;17.93;76.50
8653;BME280;4364;52.426;9.424;2022-08-03T04:23:32;101024.13;;;17.87;76.72
8653;BME280;4364;52.426;9.424;2022-08-03T04:26:01;101029.31;;;17.89;76.62
8653;BME280;4364;52.426;9.424;2022-08-03T04:28:30;101040.34;;;17.98;76.45
8653;BME280;4364;52.426;9.424;2022-08-03T04:31:02;101033.25;;;18.05;76.09
8653;BME280;4364;52.426;9.424;2022-08-03T04:33:31;101037.00;;;18.09;76.12
8653;BME280;4364;52.426;9.424;2022-08-03T04:36:03;101039.44;;;18.11;75.95
8653;BME280;4364;52.426;9.424;2022-08-03T04:38:33;101041.97;;;18.07;75.76
8653;BME280;4364;52.426;9.424;2022-08-03T04:41:02;101040.72;;;18.13;75.72
8653;BME280;4364;52.426;9.424;2022-08-03T04:43:31;101042.69;;;18.22;75.58
8653;BME280;4364;52.426;9.424;2022-08-03T04:46:00;101037.03;;;18.27;75.55
8653;BME280;4364;52.426;9.424;2022-08-03T04:48:27;101034.75;;;18.29;75.26
8653;BME280;4364;52.426;9.424;2022-08-03T04:50:53;101044.81;;;18.33;75.35
8653;BME280;4364;52.426;9.424;2022-08-03T04:53:20;101048.88;;;18.36;74.95
8653;BME280;4364;52.426;9.424;2022-08-03T04:55:48;101045.78;;;18.38;74.90
8653;BME280;4364;52.426;9.424;2022-08-03T04:58:15;101042.38;;;18.41;75.06
8653;BME280;4364;52.426;9.424;2022-08-03T05:00:41;101044.50;;;18.44;74.74
8653;BME280;4364;52.426;9.424;2022-08-03T05:03:08;101041.91;;;18.47;74.83
8653;BME280;4364;52.426;9.424;2022-08-03T05:05:51;101044.19;;;18.54;74.28
8653;BME280;4364;52.426;9.424;2022-08-03T05:08:27;101045.16;;;18.58;74.29
8653;BME280;4364;52.426;9.424;2022-08-03T05:10:55;101050.84;;;18.62;74.59
8653;BME280;4364;52.426;9.424;2022-08-03T05:13:25;101052.94;;;18.65;74.44
8653;BME280;4364;52.426;9.424;2022-08-03T05:15:51;101048.41;;;18.69;74.49
8653;BME280;4364;52.426;9.424;2022-08-03T05:18:18;101052.13;;;18.73;73.93
8653;BME280;4364;52.426;9.424;2022-08-03T05:20:44;101043.72;;;18.78;73.80
8653;BME280;4364;52.426;9.424;2022-08-03T05:23:11;101049.09;;;18.83;73.76
8653;BME280;4364;52.426;9.424;2022-08-03T05:25:38;101039.22;;;18.91;73.56
8653;BME280;4364;52.426;9.424;2022-08-03T05:28:04;101050.53;;;18.98;73.42
8653;BME280;4364;52.426;9.424;2022-08-03T05:30:31;101041.63;;;19.01;73.00
8653;BME280;4364;52.426;9.424;2022-08-03T05:33:01;101045.00;;;19.16;72.90
8653;BME280;4364;52.426;9.424;2022-08-03T05:35:27;101044.19;;;19.24;72.45
8653;BME280;4364;52.426;9.424;2022-08-03T05:38:14;101040.28;;;19.34;72.03
8653;BME280;4364;52.426;9.424;2022-08-03T05:40:53;101046.59;;;19.43;71.79
8653;BME280;4364;52.426;9.424;2022-08-03T05:43:40;101043.78;;;19.52;72.05
8653;BME280;4364;52.426;9.424;2022-08-03T05:46:07;101045.38;;;19.61;71.49
8653;BME280;4364;52.426;9.424;2022-08-03T05:48:38;101038.69;;;19.71;71.33
8653;BME280;4364;52.426;9.424;2022-08-03T05:51:05;101041.44;;;19.80;70.64
8653;BME280;4364;52.426;9.424;2022-08-03T05:53:33;101038.97;;;19.87;71.00
8653;BME280;4364;52.426;9.424;2022-08-03T05:56:00;101037.78;;;19.97;70.48
8653;BME280;4364;52.426;9.424;2022-08-03T05:58:41;101044.91;;;20.07;69.93
8653;BME280;4364;52.426;9.424;2022-08-03T06:01:07;101039.78;;;20.17;69.30
8653;BME280;4364;52.426;9.424;2022-08-03T06:03:34;101038.59;;;20.27;69.42
8653;BME280;4364;52.426;9.424;2022-08-03T06:06:01;101039.38;;;20.36;69.34
8653;BME280;4364;52.426;9.424;2022-08-03T06:08:29;101038.63;;;20.48;69.02
8653;BME280;4364;52.426;9.424;2022-08-03T06:10:56;101038.22;;;20.59;69.15
8653;BME280;4364;52.426;9.424;2022-08-03T06:13:23;101040.59;;;20.69;69.01
8653;BME280;4364;52.426;9.424;2022-08-03T06:15:50;101033.19;;;20.82;68.80
8653;BME280;4364;52.426;9.424;2022-08-03T06:18:16;101030.13;;;20.96;68.50
8653;BME280;4364;52.426;9.424;2022-08-03T06:20:43;101053.25;;;21.12;67.15
8653;BME280;4364;52.426;9.424;2022-08-03T06:23:09;101038.75;;;21.27;65.85
8653;BME280;4364;52.426;9.424;2022-08-03T06:25:41;101039.59;;;21.40;64.24
8653;BME280;4364;52.426;9.424;2022-08-03T06:28:08;101040.94;;;21.55;64.04
8653;BME280;4364;52.426;9.424;2022-08-03T06:30:54;101034.13;;;21.65;64.24
8653;BME280;4364;52.426;9.424;2022-08-03T06:33:20;101038.41;;;21.75;64.03
8653;BME280;4364;52.426;9.424;2022-08-03T06:35:47;101036.47;;;21.88;64.28
8653;BME280;4364;52.426;9.424;2022-08-03T06:38:13;101036.94;;;22.02;63.81
8653;BME280;4364;52.426;9.424;2022-08-03T06:40:40;101042.66;;;22.21;62.19
8653;BME280;4364;52.426;9.424;2022-08-03T06:43:07;101045.81;;;22.32;61.93
8653;BME280;4364;52.426;9.424;2022-08-03T06:45:38;101049.13;;;22.50;60.66
8653;BME280;4364;52.426;9.424;2022-08-03T06:48:09;101047.34;;;22.70;59.95
8653;BME280;4364;52.426;9.424;2022-08-03T06:50:38;101043.81;;;22.86;59.41
8653;BME280;4364;52.426;9.424;2022-08-03T06:53:04;101046.09;;;22.96;59.02
8653;BME280;4364;52.426;9.424;2022-08-03T06:55:31;101050.91;;;23.11;58.20
8653;BME280;4364;52.426;9.424;2022-08-03T06:57:58;101051.47;;;23.17;57.92
8653;BME280;4364;52.426;9.424;2022-08-03T07:00:29;101048.16;;;23.27;57.74
8653;BME280;4364;52.426;9.424;2022-08-03T07:02:56;101047.91;;;23.33;57.59
8653;BME280;4364;52.426;9.424;2022-08-03T07:05:24;101053.00;;;23.30;57.89
8653;BME280;4364;52.426;9.424;2022-08-03T07:07:54;101050.41;;;23.38;57.07
8653;BME280;4364;52.426;9.424;2022-08-03T07:10:21;101055.72;;;23.43;56.65
8653;BME280;4364;52.426;9.424;2022-08-03T07:12:47;101056.25;;;23.48;56.95
8653;BME280;4364;52.426;9.424;2022-08-03T07:15:21;101062.78;;;23.56;56.41
8653;BME280;4364;52.426;9.424;2022-08-03T07:18:08;101073.81;;;23.68;56.81
8653;BME280;4364;52.426;9.424;2022-08-03T07:20:34;101063.34;;;23.78;55.84
8653;BME280;4364;52.426;9.424;2022-08-03T07:23:01;101065.97;;;23.86;55.49
8653;BME280;4364;52.426;9.424;2022-08-03T07:25:28;101066.25;;;23.97;55.36
8653;BME280;4364;52.426;9.424;2022-08-03T07:27:54;101068.53;;;24.11;55.28
8653;BME280;4364;52.426;9.424;2022-08-03T07:30:21;101072.56;;;24.14;55.08
8653;BME280;4364;52.426;9.424;2022-08-03T07:32:55;101070.91;;;24.29;55.21
8653;BME280;4364;52.426;9.424;2022-08-03T07:35:22;101061.28;;;24.42;54.19
8653;BME280;4364;52.426;9.424;2022-08-03T07:37:52;101065.91;;;24.54;54.09
8653;BME280;4364;52.426;9.424;2022-08-03T07:40:20;101068.19;;;24.64;53.87
8653;BME280;4364;52.426;9.424;2022-08-03T07:42:47;101072.63;;;24.69;53.33
8653;BME280;4364;52.426;9.424;2022-08-03T07:45:18;101065.69;;;24.78;53.34
8653;BME280;4364;52.426;9.424;2022-08-03T07:47:46;101073.59;;;24.96;52.82
8653;BME280;4364;52.426;9.424;2022-08-03T07:50:19;101075.13;;;25.13;52.02
8653;BME280;4364;52.426;9.424;2022-08-03T07:52:46;101057.13;;;25.26;52.32
8653;BME280;4364;52.426;9.424;2022-08-03T07:55:18;101066.56;;;25.41;51.88
8653;BME280;4364;52.426;9.424;2022-08-03T07:57:46;101063.31;;;25.62;51.24
8653;BME280;4364;52.426;9.424;2022-08-03T08:00:15;101073.34;;;25.90;50.14
8653;BME280;4364;52.426;9.424;2022-08-03T08:02:43;101069.50;;;26.21;50.22
8653;BME280;4364;52.426;9.424;2022-08-03T08:05:10;101072.25;;;26.48;49.49
8653;BME280;4364;52.426;9.424;2022-08-03T08:07:38;101068.06;;;26.61;48.38
8653;BME280;4364;52.426;9.424;2022-08-03T08:10:07;101068.94;;;26.66;48.34
8653;BME280;4364;52.426;9.424;2022-08-03T08:12:36;101065.88;;;26.78;48.40
8653;BME280;4364;52.426;9.424;2022-08-03T08:15:03;101061.41;;;27.00;47.96
8653;BME280;4364;52.426;9.424;2022-08-03T08:17:30;101063.44;;;27.03;47.48
8653;BME280;4364;52.426;9.424;2022-08-03T08:19:57;101056.72;;;27.11;47.61
8653;BME280;4364;52.426;9.424;2022-08-03T08:22:24;101067.88;;;27.11;46.60
8653;BME280;4364;52.426;9.424;2022-08-03T08:24:58;101062.22;;;27.04;47.07
8653;BME280;4364;52.426;9.424;2022-08-03T08:27:31;101061.34;;;26.96;47.11
8653;BME280;4364;52.426;9.424;2022-08-03T08:30:21;101066.97;;;27.00;46.74
8653;BME280;4364;52.426;9.424;2022-08-03T08:32:50;101068.78;;;27.19;46.71
8653;BME280;4364;52.426;9.424;2022-08-03T08:35:16;101066.38;;;27.21;45.94
8653;BME280;4364;52.426;9.424;2022-08-03T08:37:44;101059.75;;;27.33;46.91
8653;BME280;4364;52.426;9.424;2022-08-03T08:40:19;101060.31;;;27.49;46.38
8653;BME280;4364;52.426;9.424;2022-08-03T08:42:46;101061.19;;;27.53;45.23
8653;BME280;4364;52.426;9.424;2022-08-03T08:45:24;101065.25;;;27.63;45.42
8653;BME280;4364;52.426;9.424;2022-08-03T08:47:50;101059.72;;;27.70;44.86
8653;BME280;4364;52.426;9.424;2022-08-03T08:50:22;101060.66;;;27.85;44.42
8653;BME280;4364;52.426;9.424;2022-08-03T08:52:53;101067.59;;;28.02;43.52
8653;BME280;4364;52.426;9.424;2022-08-03T08:55:22;101064.84;;;28.13;43.85
8653;BME280;4364;52.426;9.424;2022-08-03T08:57:57;101065.25;;;28.12;42.93
8653;BME280;4364;52.426;9.424;2022-08-03T09:00:28;101066.50;;;28.21;42.74
8653;BME280;4364;52.426;9.424;2022-08-03T09:02:56;101065.75;;;28.28;43.01
8653;BME280;4364;52.426;9.424;2022-08-03T09:05:23;101067.00;;;28.38;42.50
8653;BME280;4364;52.426;9.424;2022-08-03T09:08:10;101064.28;;;28.49;42.11
8653;BME280;4364;52.426;9.424;2022-08-03T09:10:36;101066.38;;;28.59;41.96
8653;BME280;4364;52.426;9.424;2022-08-03T09:13:03;101061.63;;;28.70;42.60
8653;BME280;4364;52.426;9.424;2022-08-03T09:15:31;101060.03;;;28.69;42.49
8653;BME280;4364;52.426;9.424;2022-08-03T09:18:00;101059.63;;;28.67;41.43
8653;BME280;4364;52.426;9.424;2022-08-03T09:20:30;101060.41;;;28.71;41.66
8653;BME280;4364;52.426;9.424;2022-08-03T09:23:02;101063.69;;;28.88;41.27
8653;BME280;4364;52.426;9.424;2022-08-03T09:25:57;101052.88;;;28.82;40.64
8653;BME280;4364;52.426;9.424;2022-08-03T09:28:34;101060.09;;;28.83;40.92
8653;BME280;4364;52.426;9.424;2022-08-03T09:34:06;101063.31;;;29.00;40.39
8653;BME280;4364;52.426;9.424;2022-08-03T09:36:47;101056.94;;;28.99;40.69
8653;BME280;4364;52.426;9.424;2022-08-03T09:39:22;101050.94;;;29.12;40.55
8653;BME280;4364;52.426;9.424;2022-08-03T09:42:10;101057.38;;;29.12;40.26
8653;BME280;4364;52.426;9.424;2022-08-03T09:44:42;101052.63;;;29.31;40.07
8653;BME280;4364;52.426;9.424;2022-08-03T09:47:10;101052.97;;;29.15;39.70
8653;BME280;4364;52.426;9.424;2022-08-03T09:49:38;101054.13;;;28.99;40.04
8653;BME280;4364;52.426;9.424;2022-08-03T09:52:15;101059.03;;;29.21;40.12
8653;BME280;4364;52.426;9.424;2022-08-03T09:54:59;101054.59;;;29.19;39.80
8653;BME280;4364;52.426;9.424;2022-08-03T09:57:29;101054.22;;;29.17;40.05
8653;BME280;4364;52.426;9.424;2022-08-03T10:00:12;101053.03;;;29.29;40.15
8653;BME280;4364;52.426;9.424;2022-08-03T10:02:41;101048.66;;;29.53;39.48
8653;BME280;4364;52.426;9.424;2022-08-03T10:05:11;101054.28;;;29.61;38.56
8653;BME280;4364;52.426;9.424;2022-08-03T10:07:47;101052.25;;;29.58;38.60
8653;BME280;4364;52.426;9.424;2022-08-03T10:10:15;101046.31;;;29.77;37.88
8653;BME280;4364;52.426;9.424;2022-08-03T10:13:02;101039.88;;;29.80;37.37
8653;BME280;4364;52.426;9.424;2022-08-03T10:15:28;101037.47;;;29.89;37.47
8653;BME280;4364;52.426;9.424;2022-08-03T10:18:16;101039.84;;;29.98;37.32
8653;BME280;4364;52.426;9.424;2022-08-03T10:20:48;101042.25;;;30.14;37.17
8653;BME280;4364;52.426;9.424;2022-08-03T10:23:16;101035.44;;;30.08;35.45
8653;BME280;4364;52.426;9.424;2022-08-03T10:25:46;101036.63;;;30.14;36.26
8653;BME280;4364;52.426;9.424;2022-08-03T10:28:17;101031.03;;;30.14;36.30
8653;BME280;4364;52.426;9.424;2022-08-03T10:30:47;101029.78;;;30.37;36.68
8653;BME280;4364;52.426;9.424;2022-08-03T10:33:20;101026.16;;;30.43;36.71
8653;BME280;4364;52.426;9.424;2022-08-03T10:36:07;101030.94;;;30.50;35.19
8653;BME280;4364;52.426;9.424;2022-08-03T10:38:46;101023.75;;;30.35;35.41
8653;BME280;4364;52.426;9.424;2022-08-03T10:41:20;101014.16;;;30.39;35.92
8653;BME280;4364;52.426;9.424;2022-08-03T10:43:51;101029.34;;;30.45;36.06
8653;BME280;4364;52.426;9.424;2022-08-03T10:46:20;101024.56;;;30.32;37.54
8653;BME280;4364;52.426;9.424;2022-08-03T10:48:48;101017.38;;;30.20;37.17
8653;BME280;4364;52.426;9.424;2022-08-03T10:51:18;101012.97;;;30.37;37.26
8653;BME280;4364;52.426;9.424;2022-08-03T10:53:45;101010.94;;;30.41;36.37
8653;BME280;4364;52.426;9.424;2022-08-03T11:02:12;101016.31;;;30.91;36.57
8653;BME280;4364;52.426;9.424;2022-08-03T11:04:39;101013.53;;;30.91;35.85
8653;BME280;4364;52.426;9.424;2022-08-03T11:07:21;101011.34;;;31.24;35.32
8653;BME280;4364;52.426;9.424;2022-08-03T11:09:54;101009.34;;;31.21;35.35
8653;BME280;4364;52.426;9.424;2022-08-03T11:12:24;101018.59;;;31.18;34.12
8653;BME280;4364;52.426;9.424;2022-08-03T11:14:59;101011.81;;;31.12;33.81
8653;BME280;4364;52.426;9.424;2022-08-03T11:17:26;101010.31;;;30.93;34.89
8653;BME280;4364;52.426;9.424;2022-08-03T11:19:53;101016.69;;;31.00;35.24
8653;BME280;4364;52.426;9.424;2022-08-03T11:22:24;101005.03;;;31.02;35.33
8653;BME280;4364;52.426;9.424;2022-08-03T11:27:24;100997.91;;;30.87;35.45
8653;BME280;4364;52.426;9.424;2022-08-03T11:30:22;101002.88;;;30.54;36.63
8653;BME280;4364;52.426;9.424;2022-08-03T11:32:56;100997.25;;;30.61;35.79
8653;BME280;4364;52.426;9.424;2022-08-03T11:35:32;101002.66;;;30.93;35.82
8653;BME280;4364;52.426;9.424;2022-08-03T11:38:03;101005.03;;;31.09;35.69
8653;BME280;4364;52.426;9.424;2022-08-03T11:40:48;101006.53;;;31.21;35.35
8653;BME280;4364;52.426;9.424;2022-08-03T11:45:56;100998.59;;;31.65;34.47
8653;BME280;4364;52.426;9.424;2022-08-03T11:48:27;101000.78;;;31.84;33.70
8653;BME280;4364;52.426;9.424;2022-08-03T11:50:54;100993.78;;;31.62;33.42
8653;BME280;4364;52.426;9.424;2022-08-03T11:53:20;101000.31;;;31.51;34.30
8653;BME280;4364;52.426;9.424;2022-08-03T11:55:47;100993.34;;;31.67;34.56
8653;BME280;4364;52.426;9.424;2022-08-03T11:58:20;100986.84;;;31.73;34.48
8653;BME280;4364;52.426;9.424;2022-08-03T12:01:07;100993.41;;;32.01;33.98
8653;BME280;4364;52.426;9.424;2022-08-03T12:03:34;100987.31;;;32.10;33.56
8653;BME280;4364;52.426;9.424;2022-08-03T12:06:01;100985.47;;;32.30;33.04
8653;BME280;4364;52.426;9.424;2022-08-03T12:08:32;100988.47;;;32.16;32.75
8653;BME280;4364;52.426;9.424;2022-08-03T12:11:00;100994.25;;;32.36;33.24
8653;BME280;4364;52.426;9.424;2022-08-03T12:13:36;100981.72;;;32.41;32.76
8653;BME280;4364;52.426;9.424;2022-08-03T12:16:24;100982.91;;;32.43;32.54
8653;BME280;4364;52.426;9.424;2022-08-03T12:21:26;100974.09;;;32.72;31.77
8653;BME280;4364;52.426;9.424;2022-08-03T12:24:03;100982.44;;;32.48;31.85
8653;BME280;4364;52.426;9.424;2022-08-03T12:26:43;100975.53;;;32.53;32.16
8653;BME280;4364;52.426;9.424;2022-08-03T12:29:24;100979.34;;;32.70;32.34
8653;BME280;4364;52.426;9.424;2022-08-03T12:31:51;100974.00;;;32.79;32.96
8653;BME280;4364;52.426;9.424;2022-08-03T12:34:17;100982.13;;;33.01;32.11
8653;BME280;4364;52.426;9.424;2022-08-03T12:36:52;100971.66;;;33.01;31.44
8653;BME280;4364;52.426;9.424;2022-08-03T12:39:23;100975.81;;;32.93;31.74
8653;BME280;4364;52.426;9.424;2022-08-03T12:41:54;100975.28;;;33.02;31.50
8653;BME280;4364;52.426;9.424;2022-08-03T12:44:32;100957.94;;;33.03;32.34
8653;BME280;4364;52.426;9.424;2022-08-03T12:47:00;100972.44;;;33.29;32.08
8653;BME280;4364;52.426;9.424;2022-08-03T12:49:27;100974.47;;;33.29;31.76
8653;BME280;4364;52.426;9.424;2022-08-03T12:51:57;100965.84;;;33.12;31.50
8653;BME280;4364;52.426;9.424;2022-08-03T12:54:32;100966.06;;;32.98;30.73
8653;BME280;4364;52.426;9.424;2022-08-03T12:57:09;100966.13;;;32.94;31.08
8653;BME280;4364;52.426;9.424;2022-08-03T12:59:43;100960.44;;;32.71;31.58
8653;BME280;4364;52.426;9.424;2022-08-03T13:02:20;100964.28;;;32.84;32.40
8653;BME280;4364;52.426;9.424;2022-08-03T13:04:50;100962.47;;;32.97;31.47
8653;BME280;4364;52.426;9.424;2022-08-03T13:07:18;100962.25;;;33.12;31.37
8653;BME280;4364;52.426;9.424;2022-08-03T13:09:49;100961.06;;;33.09;31.41
8653;BME280;4364;52.426;9.424;2022-08-03T13:12:17;100962.88;;;32.96;31.14
8653;BME280;4364;52.426;9.424;2022-08-03T13:14:47;100956.59;;;32.88;31.70
8653;BME280;4364;52.426;9.424;2022-08-03T13:17:14;100949.38;;;33.11;31.67
8653;BME280;4364;52.426;9.424;2022-08-03T13:19:44;100962.44;;;33.28;31.15
8653;BME280;4364;52.426;9.424;2022-08-03T13:22:23;100956.16;;;33.17;30.85
8653;BME280;4364;52.426;9.424;2022-08-03T13:24:52;100956.97;;;33.14;31.44
8653;BME280;4364;52.426;9.424;2022-08-03T13:27:21;100958.25;;;33.09;31.12
8653;BME280;4364;52.426;9.424;2022-08-03T13:30:08;100949.56;;;33.00;30.21
8653;BME280;4364;52.426;9.424;2022-08-03T13:32:35;100955.38;;;33.16;30.77
8653;BME280;4364;52.426;9.424;2022-08-03T13:35:02;100953.22;;;33.24;30.75
8653;BME280;4364;52.426;9.424;2022-08-03T13:37:30;100949.25;;;33.45;30.79
8653;BME280;4364;52.426;9.424;2022-08-03T13:39:58;100936.06;;;33.38;30.78
8653;BME280;4364;52.426;9.424;2022-08-03T13:42:31;100937.91;;;33.49;30.71
8653;BME280;4364;52.426;9.424;2022-08-03T13:44:59;100936.19;;;33.55;30.81
8653;BME280;4364;52.426;9.424;2022-08-03T13:47:26;100936.78;;;33.66;30.89
8653;BME280;4364;52.426;9.424;2022-08-03T13:49:53;100934.25;;;33.28;31.64
8653;BME280;4364;52.426;9.424;2022-08-03T13:52:32;100933.91;;;33.22;31.47
8653;BME280;4364;52.426;9.424;2022-08-03T13:55:01;100923.56;;;33.16;31.63